sensor_id;sensor_type;location;lat;lon;timestamp;P1;P4;P2;P0;N10;N4;N25;N1;N05;TS
72225;SPS30;60130;52.250;5.048;2023-05-10T00:00:00;18.05;;17.27;;;;;;;
72225;SPS30;60130;52.250;5.048;2023-05-10T00:05:00;19.43;;18.26;;;;;;;
72225;SPS30;60130;52.250;5.048;2023-05-10T00:10:00;18.63;;17.75;;;;;;;
72225;SPS30;60130;52.250;5.048;2023-05-10T00:15:00;18.89;;17.94;;;;;;;
72225;SPS30;60130;52.250;5.048;2023-05-10T00:20:00;20.45;;18.62;;;;;;;
72225;SPS30;60130;52.250;5.048;2023-05-10T00:25:00;21.25;;19.92;;;;;;;
72225;SPS30;60130;52.250;5.048;2023-05-10T00:30:00;21.81;;20.51;;;;;;;
72225;SPS30;60130;52.250;5.048;2023-05-10T00:35:00;19.82;;18.79;;;;;;;
72225;SPS30;60130;52.250;5.048;2023-05-10T00:40:00;21.85;;20.02;;;;;;;
72225;SPS30;60130;52.250;5.048;2023-05-10T00:45:00;21.28;;20.09;;;;;;;
72225;SPS30;60130;52.250;5.048;2023-05-10T00:50:00;22.30;;20.69;;;;;;;
72225;SPS30;60130;52.250;5.048;2023-05-10T00:55:00;22.89;;22.07;;;;;;;
72225;SPS30;60130;52.250;5.048;2023-05-10T01:00:00;22.16;;21.04;;;;;;;
72225;SPS30;60130;52.250;5.048;2023-05-10T01:05:00;21.03;;20.80;;;;;;;
72225;SPS30;60130;52.250;5.048;2023-05-10T01:10:00;21.39;;20.90;;;;;;;
72225;SPS30;60130;52.250;5.048;2023-05-10T01:15:00;25.35;;24.35;;;;;;;
72225;SPS30;60130;52.250;5.048;2023-05-10T01:20:00;23.61;;23.18;;;;;;;
72225;SPS30;60130;52.250;5.048;2023-05-10T01:25:09;27.42;;26.17;;;;;;;
72225;SPS30;60130;52.250;5.048;2023-05-10T01:35:00;29.07;;27.59;;;;;;;
72225;SPS30;60130;52.250;5.048;2023-05-10T01:40:01;26.58;;25.78;;;;;;;
72225;SPS30;60130;52.250;5.048;2023-05-10T01:45:02;26.13;;25.02;;;;;;;
72225;SPS30;60130;52.250;5.048;2023-05-10T01:50:01;26.26;;25.56;;;;;;;
72225;SPS30;60130;52.250;5.048;2023-05-10T01:55:01;25.13;;24.04;;;;;;;
72225;SPS30;60130;52.250;5.048;2023-05-10T02:00:00;20.27;;19.70;;;;;;;
72225;SPS30;60130;52.250;5.048;2023-05-10T02:05:00;23.53;;22.72;;;;;;;
72225;SPS30;60130;52.250;5.048;2023-05-10T02:10:00;24.39;;23.07;;;;;;;
72225;SPS30;60130;52.250;5.048;2023-05-10T02:15:02;24.81;;22.90;;;;;;;
72225;SPS30;60130;52.250;5.048;2023-05-10T02:20:00;27.09;;24.63;;;;;;;
72225;SPS30;60130;52.250;5.048;2023-05-10T02:25:00;27.36;;25.41;;;;;;;
72225;SPS30;60130;52.250;5.048;2023-05-10T02:30:00;23.86;;22.69;;;;;;;
72225;SPS30;60130;52.250;5.048;2023-05-10T02:35:00;25.35;;24.04;;;;;;;
72225;SPS30;60130;52.250;5.048;2023-05-10T02:40:00;25.34;;24.12;;;;;;;
72225;SPS30;60130;52.250;5.048;2023-05-10T02:45:00;30.21;;27.48;;;;;;;
72225;SPS30;60130;52.250;5.048;2023-05-10T02:50:00;30.32;;27.46;;;;;;;
72225;SPS30;60130;52.250;5.048;2023-05-10T02:55:00;29.30;;26.48;;;;;;;
72225;SPS30;60130;52.250;5.048;2023-05-10T03:00:00;28.96;;26.42;;;;;;;
72225;SPS30;60130;52.250;5.048;2023-05-10T03:05:00;31.28;;26.33;;;;;;;
72225;SPS30;60130;52.250;5.048;2023-05-10T03:10:00;33.39;;28.02;;;;;;;
72225;SPS30;60130;52.250;5.048;2023-05-10T03:15:00;29.29;;25.18;;;;;;;
72225;SPS30;60130;52.250;5.048;2023-05-10T03:20:03;28.61;;23.82;;;;;;;
72225;SPS30;60130;52.250;5.048;2023-05-10T03:25:00;35.71;;28.07;;;;;;;
72225;SPS30;60130;52.250;5.048;2023-05-10T03:30:00;31.62;;25.43;;;;;;;
72225;SPS30;60130;52.250;5.048;2023-05-10T03:35:00;33.17;;25.95;;;;;;;
72225;SPS30;60130;52.250;5.048;2023-05-10T03:40:00;30.12;;24.82;;;;;;;
72225;SPS30;60130;52.250;5.048;2023-05-10T03:45:00;31.04;;25.27;;;;;;;
72225;SPS30;60130;52.250;5.048;2023-05-10T03:50:00;32.38;;26.47;;;;;;;
72225;SPS30;60130;52.250;5.048;2023-05-10T03:55:00;33.01;;26.99;;;;;;;
72225;SPS30;60130;52.250;5.048;2023-05-10T04:00:00;38.06;;29.48;;;;;;;
72225;SPS30;60130;52.250;5.048;2023-05-10T04:05:00;37.20;;29.43;;;;;;;
72225;SPS30;60130;52.250;5.048;2023-05-10T04:10:00;33.61;;27.61;;;;;;;
72225;SPS30;60130;52.250;5.048;2023-05-10T04:15:00;31.27;;25.65;;;;;;;
72225;SPS30;60130;52.250;5.048;2023-05-10T04:20:00;23.60;;22.07;;;;;;;
72225;SPS30;60130;52.250;5.048;2023-05-10T04:25:00;23.29;;22.27;;;;;;;
72225;SPS30;60130;52.250;5.048;2023-05-10T04:30:00;24.17;;22.59;;;;;;;
72225;SPS30;60130;52.250;5.048;2023-05-10T04:35:00;28.59;;26.16;;;;;;;
72225;SPS30;60130;52.250;5.048;2023-05-10T04:40:00;19.02;;17.01;;;;;;;
72225;SPS30;60130;52.250;5.048;2023-05-10T04:45:00;18.05;;15.19;;;;;;;
72225;SPS30;60130;52.250;5.048;2023-05-10T04:50:00;13.62;;12.03;;;;;;;
72225;SPS30;60130;52.250;5.048;2023-05-10T04:55:00;12.53;;11.18;;;;;;;
72225;SPS30;60130;52.250;5.048;2023-05-10T05:00:00;11.80;;10.85;;;;;;;
72225;SPS30;60130;52.250;5.048;2023-05-10T05:05:00;11.99;;11.07;;;;;;;
72225;SPS30;60130;52.250;5.048;2023-05-10T05:10:00;11.25;;10.71;;;;;;;
72225;SPS30;60130;52.250;5.048;2023-05-10T05:15:00;11.69;;10.48;;;;;;;
72225;SPS30;60130;52.250;5.048;2023-05-10T05:20:00;10.73;;9.70;;;;;;;
72225;SPS30;60130;52.250;5.048;2023-05-10T05:25:00;11.58;;10.14;;;;;;;
72225;SPS30;60130;52.250;5.048;2023-05-10T05:30:00;10.88;;9.84;;;;;;;
72225;SPS30;60130;52.250;5.048;2023-05-10T05:35:00;12.52;;11.03;;;;;;;
72225;SPS30;60130;52.250;5.048;2023-05-10T05:40:00;14.16;;12.23;;;;;;;
72225;SPS30;60130;52.250;5.048;2023-05-10T05:45:00;15.28;;12.85;;;;;;;
72225;SPS30;60130;52.250;5.048;2023-05-10T05:50:00;13.50;;12.10;;;;;;;
72225;SPS30;60130;52.250;5.048;2023-05-10T05:55:00;15.20;;12.97;;;;;;;
72225;SPS30;60130;52.250;5.048;2023-05-10T06:00:00;unavailable;;unavailable;;;;;;;
72225;SPS30;60130;52.250;5.048;2023-05-10T06:05:00;13.59;;12.12;;;;;;;
72225;SPS30;60130;52.250;5.048;2023-05-10T06:10:00;unavailable;;unavailable;;;;;;;
72225;SPS30;60130;52.250;5.048;2023-05-10T06:15:00;12.45;;11.16;;;;;;;
72225;SPS30;60130;52.250;5.048;2023-05-10T06:20:00;unavailable;;unavailable;;;;;;;
72225;SPS30;60130;52.250;5.048;2023-05-10T06:25:00;11.57;;10.70;;;;;;;
72225;SPS30;60130;52.250;5.048;2023-05-10T06:30:00;unavailable;;unavailable;;;;;;;
72225;SPS30;60130;52.250;5.048;2023-05-10T06:35:00;unavailable;;unavailable;;;;;;;
72225;SPS30;60130;52.250;5.048;2023-05-10T06:40:00;unavailable;;unavailable;;;;;;;
72225;SPS30;60130;52.250;5.048;2023-05-10T06:45:00;unavailable;;unavailable;;;;;;;
72225;SPS30;60130;52.250;5.048;2023-05-10T06:50:00;unavailable;;unavailable;;;;;;;
72225;SPS30;60130;52.250;5.048;2023-05-10T06:55:00;unavailable;;unavailable;;;;;;;
72225;SPS30;60130;52.250;5.048;2023-05-10T07:00:00;unavailable;;unavailable;;;;;;;
72225;SPS30;60130;52.250;5.048;2023-05-10T07:05:00;unavailable;;unavailable;;;;;;;
72225;SPS30;60130;52.250;5.048;2023-05-10T07:10:00;10.96;;9.81;;;;;;;
72225;SPS30;60130;52.250;5.048;2023-05-10T07:15:00;unavailable;;unavailable;;;;;;;
72225;SPS30;60130;52.250;5.048;2023-05-10T07:20:00;unavailable;;unavailable;;;;;;;
72225;SPS30;60130;52.250;5.048;2023-05-10T07:25:00;10.10;;9.23;;;;;;;
72225;SPS30;60130;52.250;5.048;2023-05-10T07:30:00;9.37;;8.62;;;;;;;
72225;SPS30;60130;52.250;5.048;2023-05-10T07:35:00;8.82;;8.19;;;;;;;
72225;SPS30;60130;52.250;5.048;2023-05-10T07:40:00;9.76;;9.04;;;;;;;
72225;SPS30;60130;52.250;5.048;2023-05-10T07:45:00;10.80;;9.87;;;;;;;
72225;SPS30;60130;52.250;5.048;2023-05-10T07:50:00;unavailable;;unavailable;;;;;;;
72225;SPS30;60130;52.250;5.048;2023-05-10T07:55:00;8.45;;8.05;;;;;;;
72225;SPS30;60130;52.250;5.048;2023-05-10T08:00:00;9.31;;8.42;;;;;;;
72225;SPS30;60130;52.250;5.048;2023-05-10T08:05:00;9.90;;8.98;;;;;;;
72225;SPS30;60130;52.250;5.048;2023-05-10T08:10:00;9.52;;8.80;;;;;;;
72225;SPS30;60130;52.250;5.048;2023-05-10T08:15:00;9.87;;9.04;;;;;;;
72225;SPS30;60130;52.250;5.048;2023-05-10T08:20:00;9.26;;8.59;;;;;;;
72225;SPS30;60130;52.250;5.048;2023-05-10T08:25:00;9.16;;8.46;;;;;;;
72225;SPS30;60130;52.250;5.048;2023-05-10T08:30:00;9.41;;8.50;;;;;;;
72225;SPS30;60130;52.250;5.048;2023-05-10T08:35:00;9.76;;8.99;;;;;;;
72225;SPS30;60130;52.250;5.048;2023-05-10T08:40:00;8.84;;8.28;;;;;;;
72225;SPS30;60130;52.250;5.048;2023-05-10T08:45:00;9.46;;8.70;;;;;;;
72225;SPS30;60130;52.250;5.048;2023-05-10T08:50:00;9.41;;8.77;;;;;;;
72225;SPS30;60130;52.250;5.048;2023-05-10T08:55:00;7.36;;6.84;;;;;;;
72225;SPS30;60130;52.250;5.048;2023-05-10T09:00:00;8.03;;7.47;;;;;;;
72225;SPS30;60130;52.250;5.048;2023-05-10T09:05:00;6.75;;6.34;;;;;;;
72225;SPS30;60130;52.250;5.048;2023-05-10T09:10:00;6.63;;6.39;;;;;;;
72225;SPS30;60130;52.250;5.048;2023-05-10T09:15:00;6.94;;6.71;;;;;;;
72225;SPS30;60130;52.250;5.048;2023-05-10T09:20:00;5.61;;5.43;;;;;;;
72225;SPS30;60130;52.250;5.048;2023-05-10T09:25:03;4.83;;4.71;;;;;;;
72225;SPS30;60130;52.250;5.048;2023-05-10T09:30:00;5.61;;5.49;;;;;;;
72225;SPS30;60130;52.250;5.048;2023-05-10T09:35:05;4.90;;4.82;;;;;;;
72225;SPS30;60130;52.250;5.048;2023-05-10T09:40:00;4.46;;4.36;;;;;;;
72225;SPS30;60130;52.250;5.048;2023-05-10T09:45:01;4.71;;4.60;;;;;;;
72225;SPS30;60130;52.250;5.048;2023-05-10T09:50:00;4.95;;4.71;;;;;;;
72225;SPS30;60130;52.250;5.048;2023-05-10T09:55:00;5.26;;5.10;;;;;;;
72225;SPS30;60130;52.250;5.048;2023-05-10T10:00:00;5.47;;5.26;;;;;;;
72225;SPS30;60130;52.250;5.048;2023-05-10T10:05:00;4.61;;4.42;;;;;;;
72225;SPS30;60130;52.250;5.048;2023-05-10T10:10:00;4.35;;4.19;;;;;;;
72225;SPS30;60130;52.250;5.048;2023-05-10T10:15:00;4.05;;3.98;;;;;;;
72225;SPS30;60130;52.250;5.048;2023-05-10T10:20:00;4.38;;4.20;;;;;;;
72225;SPS30;60130;52.250;5.048;2023-05-10T10:25:00;4.40;;4.22;;;;;;;
72225;SPS30;60130;52.250;5.048;2023-05-10T10:30:02;4.14;;3.98;;;;;;;
72225;SPS30;60130;52.250;5.048;2023-05-10T10:35:00;4.42;;4.25;;;;;;;
72225;SPS30;60130;52.250;5.048;2023-05-10T10:40:00;3.70;;3.60;;;;;;;
72225;SPS30;60130;52.250;5.048;2023-05-10T10:45:11;4.58;;4.41;;;;;;;
72225;SPS30;60130;52.250;5.048;2023-05-10T10:50:03;4.69;;4.57;;;;;;;
72225;SPS30;60130;52.250;5.048;2023-05-10T10:55:02;5.05;;4.85;;;;;;;
72225;SPS30;60130;52.250;5.048;2023-05-10T11:05:00;4.73;;4.50;;;;;;;
72225;SPS30;60130;52.250;5.048;2023-05-10T11:10:03;4.10;;3.96;;;;;;;
72225;SPS30;60130;52.250;5.048;2023-05-10T11:15:00;3.94;;3.74;;;;;;;
72225;SPS30;60130;52.250;5.048;2023-05-10T11:20:07;3.67;;3.52;;;;;;;
72225;SPS30;60130;52.250;5.048;2023-05-10T11:25:00;4.21;;3.98;;;;;;;
72225;SPS30;60130;52.250;5.048;2023-05-10T11:30:00;4.47;;4.27;;;;;;;
72225;SPS30;60130;52.250;5.048;2023-05-10T11:35:00;4.52;;4.36;;;;;;;
72225;SPS30;60130;52.250;5.048;2023-05-10T11:40:00;4.55;;4.32;;;;;;;
72225;SPS30;60130;52.250;5.048;2023-05-10T11:45:00;4.37;;4.23;;;;;;;
72225;SPS30;60130;52.250;5.048;2023-05-10T11:50:00;4.62;;4.49;;;;;;;
72225;SPS30;60130;52.250;5.048;2023-05-10T11:55:00;3.77;;3.62;;;;;;;
72225;SPS30;60130;52.250;5.048;2023-05-10T12:00:00;4.16;;3.90;;;;;;;
72225;SPS30;60130;52.250;5.048;2023-05-10T12:05:00;4.32;;4.11;;;;;;;
72225;SPS30;60130;52.250;5.048;2023-05-10T12:10:04;3.17;;3.10;;;;;;;
72225;SPS30;60130;52.250;5.048;2023-05-10T12:15:00;4.15;;4.05;;;;;;;
72225;SPS30;60130;52.250;5.048;2023-05-10T12:25:00;5.66;;5.43;;;;;;;
72225;SPS30;60130;52.250;5.048;2023-05-10T12:30:00;7.25;;7.00;;;;;;;
72225;SPS30;60130;52.250;5.048;2023-05-10T12:35:00;6.81;;6.54;;;;;;;
72225;SPS30;60130;52.250;5.048;2023-05-10T12:40:00;7.32;;6.84;;;;;;;
72225;SPS30;60130;52.250;5.048;2023-05-10T12:45:00;6.86;;6.54;;;;;;;
72225;SPS30;60130;52.250;5.048;2023-05-10T12:50:00;6.53;;6.26;;;;;;;
72225;SPS30;60130;52.250;5.048;2023-05-10T12:55:00;7.95;;7.58;;;;;;;
72225;SPS30;60130;52.250;5.048;2023-05-10T13:00:00;7.57;;7.20;;;;;;;
72225;SPS30;60130;52.250;5.048;2023-05-10T13:05:00;8.54;;7.91;;;;;;;
72225;SPS30;60130;52.250;5.048;2023-05-10T13:10:00;9.06;;8.59;;;;;;;
72225;SPS30;60130;52.250;5.048;2023-05-10T13:15:00;8.11;;7.67;;;;;;;
72225;SPS30;60130;52.250;5.048;2023-05-10T13:20:00;9.08;;8.54;;;;;;;
72225;SPS30;60130;52.250;5.048;2023-05-10T13:25:00;7.77;;7.46;;;;;;;
72225;SPS30;60130;52.250;5.048;2023-05-10T13:30:00;8.51;;7.82;;;;;;;
72225;SPS30;60130;52.250;5.048;2023-05-10T13:35:00;9.14;;8.41;;;;;;;
72225;SPS30;60130;52.250;5.048;2023-05-10T13:40:00;7.95;;7.41;;;;;;;
72225;SPS30;60130;52.250;5.048;2023-05-10T13:45:00;8.01;;7.32;;;;;;;
72225;SPS30;60130;52.250;5.048;2023-05-10T13:50:00;7.96;;7.52;;;;;;;
72225;SPS30;60130;52.250;5.048;2023-05-10T13:55:00;6.68;;6.39;;;;;;;
72225;SPS30;60130;52.250;5.048;2023-05-10T14:00:00;6.90;;6.49;;;;;;;
72225;SPS30;60130;52.250;5.048;2023-05-10T14:05:00;5.88;;5.61;;;;;;;
72225;SPS30;60130;52.250;5.048;2023-05-10T14:10:00;6.44;;6.08;;;;;;;
72225;SPS30;60130;52.250;5.048;2023-05-10T14:15:00;6.78;;6.44;;;;;;;
72225;SPS30;60130;52.250;5.048;2023-05-10T14:20:00;6.90;;6.62;;;;;;;
72225;SPS30;60130;52.250;5.048;2023-05-10T14:25:00;7.26;;6.73;;;;;;;
72225;SPS30;60130;52.250;5.048;2023-05-10T14:30:00;7.36;;6.81;;;;;;;
72225;SPS30;60130;52.250;5.048;2023-05-10T14:35:00;6.32;;6.12;;;;;;;
72225;SPS30;60130;52.250;5.048;2023-05-10T14:40:00;5.83;;5.62;;;;;;;
72225;SPS30;60130;52.250;5.048;2023-05-10T14:45:00;6.35;;6.16;;;;;;;
72225;SPS30;60130;52.250;5.048;2023-05-10T14:50:00;5.43;;5.18;;;;;;;
72225;SPS30;60130;52.250;5.048;2023-05-10T14:55:00;5.06;;4.90;;;;;;;
72225;SPS30;60130;52.250;5.048;2023-05-10T15:00:00;4.53;;4.34;;;;;;;
72225;SPS30;60130;52.250;5.048;2023-05-10T15:05:00;2.09;;2.04;;;;;;;
72225;SPS30;60130;52.250;5.048;2023-05-10T15:10:00;3.25;;3.18;;;;;;;
72225;SPS30;60130;52.250;5.048;2023-05-10T15:15:00;3.91;;3.76;;;;;;;
72225;SPS30;60130;52.250;5.048;2023-05-10T15:20:00;4.90;;4.74;;;;;;;
72225;SPS30;60130;52.250;5.048;2023-05-10T15:25:00;4.09;;4.01;;;;;;;
72225;SPS30;60130;52.250;5.048;2023-05-10T15:30:00;4.25;;4.12;;;;;;;
72225;SPS30;60130;52.250;5.048;2023-05-10T15:35:00;4.14;;4.07;;;;;;;
72225;SPS30;60130;52.250;5.048;2023-05-10T15:40:00;4.02;;3.98;;;;;;;
72225;SPS30;60130;52.250;5.048;2023-05-10T15:45:00;4.52;;4.39;;;;;;;
72225;SPS30;60130;52.250;5.048;2023-05-10T15:50:00;5.41;;5.18;;;;;;;
72225;SPS30;60130;52.250;5.048;2023-05-10T15:55:00;5.54;;5.33;;;;;;;
72225;SPS30;60130;52.250;5.048;2023-05-10T16:00:00;5.64;;5.47;;;;;;;
72225;SPS30;60130;52.250;5.048;2023-05-10T16:05:00;6.39;;6.05;;;;;;;
72225;SPS30;60130;52.250;5.048;2023-05-10T16:10:00;6.39;;6.06;;;;;;;
72225;SPS30;60130;52.250;5.048;2023-05-10T16:15:00;7.26;;6.81;;;;;;;
72225;SPS30;60130;52.250;5.048;2023-05-10T16:20:00;6.89;;6.28;;;;;;;
72225;SPS30;60130;52.250;5.048;2023-05-10T16:25:00;6.88;;6.54;;;;;;;
72225;SPS30;60130;52.250;5.048;2023-05-10T16:30:00;5.81;;5.54;;;;;;;
72225;SPS30;60130;52.250;5.048;2023-05-10T16:35:00;5.91;;5.64;;;;;;;
72225;SPS30;60130;52.250;5.048;2023-05-10T16:40:00;6.10;;5.84;;;;;;;
72225;SPS30;60130;52.250;5.048;2023-05-10T16:45:00;4.29;;4.04;;;;;;;
72225;SPS30;60130;52.250;5.048;2023-05-10T16:50:00;5.35;;5.15;;;;;;;
72225;SPS30;60130;52.250;5.048;2023-05-10T16:55:00;5.22;;5.05;;;;;;;
72225;SPS30;60130;52.250;5.048;2023-05-10T17:00:00;5.26;;5.09;;;;;;;
72225;SPS30;60130;52.250;5.048;2023-05-10T17:05:00;5.50;;5.23;;;;;;;
72225;SPS30;60130;52.250;5.048;2023-05-10T17:10:00;4.58;;4.37;;;;;;;
72225;SPS30;60130;52.250;5.048;2023-05-10T17:15:00;5.34;;5.00;;;;;;;
72225;SPS30;60130;52.250;5.048;2023-05-10T17:20:00;4.52;;4.38;;;;;;;
72225;SPS30;60130;52.250;5.048;2023-05-10T17:25:00;6.21;;5.97;;;;;;;
72225;SPS30;60130;52.250;5.048;2023-05-10T17:30:00;6.31;;6.09;;;;;;;
72225;SPS30;60130;52.250;5.048;2023-05-10T17:35:00;7.97;;7.42;;;;;;;
72225;SPS30;60130;52.250;5.048;2023-05-10T17:40:00;7.55;;6.93;;;;;;;
72225;SPS30;60130;52.250;5.048;2023-05-10T17:45:00;8.28;;7.74;;;;;;;
72225;SPS30;60130;52.250;5.048;2023-05-10T17:50:00;9.13;;8.39;;;;;;;
72225;SPS30;60130;52.250;5.048;2023-05-10T17:55:00;8.95;;8.07;;;;;;;
72225;SPS30;60130;52.250;5.048;2023-05-10T18:00:00;9.30;;8.45;;;;;;;
72225;SPS30;60130;52.250;5.048;2023-05-10T18:05:00;6.63;;6.27;;;;;;;
72225;SPS30;60130;52.250;5.048;2023-05-10T18:10:00;7.80;;7.14;;;;;;;
72225;SPS30;60130;52.250;5.048;2023-05-10T18:15:00;6.78;;6.41;;;;;;;
72225;SPS30;60130;52.250;5.048;2023-05-10T18:20:00;6.49;;6.02;;;;;;;
72225;SPS30;60130;52.250;5.048;2023-05-10T18:25:00;7.08;;6.64;;;;;;;
72225;SPS30;60130;52.250;5.048;2023-05-10T18:30:00;5.95;;5.58;;;;;;;
72225;SPS30;60130;52.250;5.048;2023-05-10T18:35:00;6.91;;6.57;;;;;;;
72225;SPS30;60130;52.250;5.048;2023-05-10T18:40:00;7.37;;6.75;;;;;;;
72225;SPS30;60130;52.250;5.048;2023-05-10T18:45:00;7.90;;7.40;;;;;;;
72225;SPS30;60130;52.250;5.048;2023-05-10T18:50:01;7.06;;6.69;;;;;;;
72225;SPS30;60130;52.250;5.048;2023-05-10T18:55:00;8.64;;7.94;;;;;;;
72225;SPS30;60130;52.250;5.048;2023-05-10T19:00:00;8.01;;7.42;;;;;;;
72225;SPS30;60130;52.250;5.048;2023-05-10T19:05:00;7.63;;7.05;;;;;;;
72225;SPS30;60130;52.250;5.048;2023-05-10T19:10:00;7.82;;7.28;;;;;;;
72225;SPS30;60130;52.250;5.048;2023-05-10T19:15:00;7.28;;7.01;;;;;;;
72225;SPS30;60130;52.250;5.048;2023-05-10T19:20:00;7.60;;7.39;;;;;;;
72225;SPS30;60130;52.250;5.048;2023-05-10T19:25:00;7.57;;7.05;;;;;;;
72225;SPS30;60130;52.250;5.048;2023-05-10T19:30:00;6.66;;6.42;;;;;;;
72225;SPS30;60130;52.250;5.048;2023-05-10T19:35:00;6.50;;5.97;;;;;;;
72225;SPS30;60130;52.250;5.048;2023-05-10T19:40:00;6.81;;6.42;;;;;;;
72225;SPS30;60130;52.250;5.048;2023-05-10T19:45:00;7.07;;6.71;;;;;;;
72225;SPS30;60130;52.250;5.048;2023-05-10T19:50:00;6.68;;6.29;;;;;;;
72225;SPS30;60130;52.250;5.048;2023-05-10T19:55:00;7.18;;6.92;;;;;;;
72225;SPS30;60130;52.250;5.048;2023-05-10T20:00:00;7.17;;6.72;;;;;;;
72225;SPS30;60130;52.250;5.048;2023-05-10T20:05:00;6.19;;6.00;;;;;;;
72225;SPS30;60130;52.250;5.048;2023-05-10T20:10:00;7.66;;7.11;;;;;;;
72225;SPS30;60130;52.250;5.048;2023-05-10T20:15:00;7.68;;7.22;;;;;;;
72225;SPS30;60130;52.250;5.048;2023-05-10T20:20:00;7.79;;7.32;;;;;;;
72225;SPS30;60130;52.250;5.048;2023-05-10T20:25:00;8.18;;7.55;;;;;;;
72225;SPS30;60130;52.250;5.048;2023-05-10T20:30:00;7.99;;7.62;;;;;;;
72225;SPS30;60130;52.250;5.048;2023-05-10T20:35:00;8.28;;7.60;;;;;;;
72225;SPS30;60130;52.250;5.048;2023-05-10T20:40:00;8.40;;7.70;;;;;;;
72225;SPS30;60130;52.250;5.048;2023-05-10T20:45:00;9.25;;8.45;;;;;;;
72225;SPS30;60130;52.250;5.048;2023-05-10T20:50:00;8.05;;7.50;;;;;;;
72225;SPS30;60130;52.250;5.048;2023-05-10T20:55:00;8.24;;7.67;;;;;;;
72225;SPS30;60130;52.250;5.048;2023-05-10T21:00:00;8.06;;7.46;;;;;;;
72225;SPS30;60130;52.250;5.048;2023-05-10T21:05:00;8.82;;8.19;;;;;;;
72225;SPS30;60130;52.250;5.048;2023-05-10T21:10:00;8.84;;7.95;;;;;;;
72225;SPS30;60130;52.250;5.048;2023-05-10T21:15:00;8.59;;7.88;;;;;;;
72225;SPS30;60130;52.250;5.048;2023-05-10T21:20:00;8.68;;7.76;;;;;;;
72225;SPS30;60130;52.250;5.048;2023-05-10T21:25:00;8.62;;7.80;;;;;;;
72225;SPS30;60130;52.250;5.048;2023-05-10T21:30:00;9.07;;8.49;;;;;;;
72225;SPS30;60130;52.250;5.048;2023-05-10T21:35:00;8.46;;7.76;;;;;;;
72225;SPS30;60130;52.250;5.048;2023-05-10T21:40:00;8.61;;7.98;;;;;;;
72225;SPS30;60130;52.250;5.048;2023-05-10T21:45:00;9.01;;8.29;;;;;;;
72225;SPS30;60130;52.250;5.048;2023-05-10T21:50:00;9.71;;8.55;;;;;;;
72225;SPS30;60130;52.250;5.048;2023-05-10T21:55:00;10.04;;9.01;;;;;;;
72225;SPS30;60130;52.250;5.048;2023-05-10T22:00:00;8.95;;8.38;;;;;;;
72225;SPS30;60130;52.250;5.048;2023-05-10T22:05:00;9.93;;9.28;;;;;;;
72225;SPS30;60130;52.250;5.048;2023-05-10T22:10:00;10.62;;9.50;;;;;;;
72225;SPS30;60130;52.250;5.048;2023-05-10T22:15:00;11.09;;9.78;;;;;;;
72225;SPS30;60130;52.250;5.048;2023-05-10T22:20:00;12.19;;10.84;;;;;;;
72225;SPS30;60130;52.250;5.048;2023-05-10T22:25:00;11.33;;10.40;;;;;;;
72225;SPS30;60130;52.250;5.048;2023-05-10T22:30:00;10.45;;9.74;;;;;;;
72225;SPS30;60130;52.250;5.048;2023-05-10T22:35:00;10.87;;9.85;;;;;;;
72225;SPS30;60130;52.250;5.048;2023-05-10T22:40:00;14.29;;12.33;;;;;;;
72225;SPS30;60130;52.250;5.048;2023-05-10T22:45:00;11.76;;10.43;;;;;;;
72225;SPS30;60130;52.250;5.048;2023-05-10T22:50:00;13.45;;12.02;;;;;;;
72225;SPS30;60130;52.250;5.048;2023-05-10T22:55:00;14.20;;12.61;;;;;;;
72225;SPS30;60130;52.250;5.048;2023-05-10T23:00:00;14.24;;12.37;;;;;;;
72225;SPS30;60130;52.250;5.048;2023-05-10T23:05:00;14.15;;12.27;;;;;;;
72225;SPS30;60130;52.250;5.048;2023-05-10T23:10:00;15.20;;12.93;;;;;;;
72225;SPS30;60130;52.250;5.048;2023-05-10T23:15:00;14.90;;12.97;;;;;;;
72225;SPS30;60130;52.250;5.048;2023-05-10T23:20:00;14.06;;12.42;;;;;;;
72225;SPS30;60130;52.250;5.048;2023-05-10T23:25:00;13.83;;12.04;;;;;;;
72225;SPS30;60130;52.250;5.048;2023-05-10T23:30:00;15.66;;13.12;;;;;;;
72225;SPS30;60130;52.250;5.048;2023-05-10T23:35:00;14.08;;11.91;;;;;;;
72225;SPS30;60130;52.250;5.048;2023-05-10T23:40:00;15.89;;13.33;;;;;;;
72225;SPS30;60130;52.250;5.048;2023-05-10T23:45:00;16.11;;13.64;;;;;;;
72225;SPS30;60130;52.250;5.048;2023-05-10T23:50:00;15.42;;13.62;;;;;;;
72225;SPS30;60130;52.250;5.048;2023-05-10T23:55:00;15.87;;13.89;;;;;;;
